Time;durP1;ratioP1;P1;durP2;ratioP2;P2;SDS_P1;SDS_P2;PMS_P1;PMS_P2;Temp;Humidity;BMP_temperature;BMP_pressure;BME280_temperature;BME280_humidity;BME280_pressure;Samples;Min_cycle;Max_cycle;Signal;HPM_P1;HPM_P2
2022/04/08 00:00:14;;;;;;;2.33;0.00;;;6.00;99.90;;;;;;5053382;28;20021;-72
2022/04/08 00:02:39;;;;;;;7.60;0.73;;;6.00;99.90;;;;;;5053187;28;20021;-72
2022/04/08 00:05:07;;;;;;;9.70;0.77;;;6.10;99.90;;;;;;5053267;28;20371;-72
2022/04/08 00:07:32;;;;;;;3.10;0.30;;;6.10;99.90;;;;;;5053443;28;20056;-72
2022/04/08 00:09:58;;;;;;;6.75;0.20;;;6.10;99.90;;;;;;5053647;28;20057;-72
2022/04/08 00:12:23;;;;;;;7.43;1.30;;;6.00;99.90;;;;;;5053447;28;20029;-72
2022/04/08 00:14:49;;;;;;;3.67;0.20;;;6.10;99.90;;;;;;5035577;28;20033;-72
2022/04/08 00:17:14;;;;;;;7.28;0.17;;;6.10;99.90;;;;;;5053926;28;20017;-72
2022/04/08 00:19:40;;;;;;;24.33;0.75;;;6.10;99.90;;;;;;5035339;28;20021;-72
2022/04/08 00:22:05;;;;;;;6.50;0.65;;;6.00;99.90;;;;;;5053645;28;20021;-72
2022/04/08 00:24:31;;;;;;;3.53;0.45;;;6.00;99.90;;;;;;5053134;28;20036;-72
2022/04/08 00:26:57;;;;;;;11.13;1.10;;;6.00;99.90;;;;;;5053336;28;20029;-72
2022/04/08 00:29:23;;;;;;;5.63;0.47;;;6.00;99.90;;;;;;5035694;28;20119;-72
2022/04/08 00:31:50;;;;;;;10.68;0.10;;;5.90;99.90;;;;;;5052881;28;20028;-72
2022/04/08 00:34:16;;;;;;;5.88;0.20;;;5.90;99.90;;;;;;5053233;28;20044;-72
2022/04/08 00:36:41;;;;;;;5.28;0.20;;;5.80;99.90;;;;;;5035345;28;20482;-72
2022/04/08 00:39:11;;;;;;;8.30;0.20;;;5.80;99.90;;;;;;5035333;28;20021;-72
2022/04/08 00:41:37;;;;;;;7.95;1.00;;;5.70;99.90;;;;;;5053836;28;20036;-72
2022/04/08 00:44:03;;;;;;;7.50;0.93;;;5.70;99.90;;;;;;5053062;28;20029;-72
2022/04/08 00:46:29;;;;;;;13.82;0.68;;;5.60;99.90;;;;;;5053026;28;20040;-72
2022/04/08 00:48:54;;;;;;;7.90;0.00;;;5.60;99.90;;;;;;5035147;28;20490;-72
2022/04/08 00:51:21;;;;;;;12.48;0.28;;;5.50;99.90;;;;;;5053220;28;20069;-72
2022/04/08 00:53:48;;;;;;;11.60;0.22;;;5.50;99.90;;;;;;5053257;28;20013;-72
2022/04/08 00:56:13;;;;;;;10.27;0.25;;;5.40;99.90;;;;;;5035239;28;20021;-72
2022/04/08 00:58:39;;;;;;;9.25;0.30;;;5.30;99.90;;;;;;5053653;28;20024;-72
2022/04/08 01:01:05;;;;;;;8.60;0.00;;;5.20;99.90;;;;;;5052771;28;20085;-72
2022/04/08 01:03:30;;;;;;;8.38;0.65;;;5.20;99.90;;;;;;5053414;28;20025;-72
2022/04/08 01:05:58;;;;;;;9.20;0.25;;;5.20;99.90;;;;;;5052845;28;20029;-72
2022/04/08 01:08:23;;;;;;;14.32;0.20;;;5.20;99.90;;;;;;5053042;28;20543;-72
2022/04/08 01:10:50;;;;;;;11.40;0.10;;;5.20;99.90;;;;;;5052946;28;20025;-72
2022/04/08 01:13:16;;;;;;;13.70;0.68;;;5.20;99.90;;;;;;5038975;28;20104;-72
2022/04/08 01:15:42;;;;;;;5.65;0.00;;;5.10;99.90;;;;;;5056648;28;20536;-72
2022/04/08 01:18:08;;;;;;;5.82;0.50;;;5.10;99.90;;;;;;5056602;28;20478;-72
2022/04/08 01:20:34;;;;;;;6.95;0.20;;;5.10;99.90;;;;;;5056351;28;20486;-72
2022/04/08 01:23:00;;;;;;;8.18;0.45;;;5.20;99.90;;;;;;5056929;28;20021;-72
2022/04/08 01:25:25;;;;;;;4.70;0.32;;;5.20;99.90;;;;;;5056436;28;20029;-72
2022/04/08 01:27:51;;;;;;;7.30;0.65;;;5.10;99.90;;;;;;5038613;28;20074;-72
2022/04/08 01:30:16;;;;;;;3.25;0.10;;;5.10;99.90;;;;;;5056528;28;20028;-72
2022/04/08 01:32:43;;;;;;;9.52;0.45;;;5.00;99.90;;;;;;5038540;28;20119;-72
2022/04/08 01:35:09;;;;;;;10.98;0.13;;;5.00;99.90;;;;;;5038221;28;20021;-72
2022/04/08 01:37:35;;;;;;;10.73;1.00;;;5.00;99.90;;;;;;5056623;28;20092;-72
2022/04/08 01:40:00;;;;;;;2.35;0.08;;;5.00;99.90;;;;;;5055941;28;20077;-72
2022/04/08 01:42:26;;;;;;;8.50;0.30;;;4.90;99.90;;;;;;5056338;28;20027;-72
2022/04/08 01:44:53;;;;;;;15.32;0.80;;;4.90;99.90;;;;;;5056114;28;20021;-72
2022/04/08 01:47:19;;;;;;;8.27;1.15;;;4.90;99.90;;;;;;5056589;28;20029;-72
2022/04/08 01:49:45;;;;;;;6.65;0.08;;;4.90;99.90;;;;;;5056591;28;20040;-72
2022/04/08 01:52:11;;;;;;;14.50;0.10;;;4.90;99.90;;;;;;5038067;28;20393;-72
2022/04/08 01:54:36;;;;;;;12.70;0.50;;;4.80;99.90;;;;;;5055733;28;20104;-72
2022/04/08 01:57:02;;;;;;;8.32;0.00;;;4.80;99.90;;;;;;5056047;28;20360;-72
2022/04/08 01:59:28;;;;;;;4.57;0.17;;;4.70;99.90;;;;;;5056231;28;20043;-72
2022/04/08 02:01:53;;;;;;;12.90;0.43;;;4.70;99.90;;;;;;5056207;28;20469;-72
2022/04/08 02:04:19;;;;;;;11.00;0.55;;;4.60;99.90;;;;;;5056065;28;20390;-72
2022/04/08 02:06:45;;;;;;;4.63;0.00;;;4.70;99.90;;;;;;5055673;28;20033;-72
2022/04/08 02:09:11;;;;;;;9.02;1.00;;;4.70;99.90;;;;;;5055531;28;20029;-72
2022/04/08 02:11:37;;;;;;;5.80;0.40;;;4.70;99.90;;;;;;5055366;28;20163;-72
2022/04/08 02:14:04;;;;;;;5.68;0.43;;;4.70;99.90;;;;;;5056573;28;20104;-72
2022/04/08 02:16:29;;;;;;;3.90;0.52;;;4.70;99.90;;;;;;5055599;28;20028;-72
2022/04/08 02:18:55;;;;;;;6.40;0.15;;;4.80;99.90;;;;;;5054742;28;20021;-72
2022/04/08 02:21:21;;;;;;;5.72;0.00;;;4.90;99.90;;;;;;5055260;28;20047;-72
2022/04/08 02:23:51;;;;;;;2.67;0.20;;;5.00;99.90;;;;;;5055245;28;20545;-72
2022/04/08 02:26:17;;;;;;;8.45;0.73;;;5.00;99.90;;;;;;5055310;28;20067;-72
2022/04/08 02:28:43;;;;;;;5.90;0.30;;;5.10;99.90;;;;;;5055288;28;20474;-72
2022/04/08 02:31:09;;;;;;;8.70;0.43;;;5.10;99.90;;;;;;5055219;28;20075;-72
2022/04/08 02:33:35;;;;;;;4.18;0.00;;;5.00;99.90;;;;;;5037201;28;20441;-72
2022/04/08 02:36:01;;;;;;;4.93;0.47;;;4.90;99.90;;;;;;5055943;28;20017;-71
2022/04/08 02:38:27;;;;;;;3.08;0.17;;;4.80;99.90;;;;;;5055505;28;20028;-72
2022/04/08 02:40:52;;;;;;;3.70;0.00;;;4.80;99.90;;;;;;5055414;28;20374;-72
2022/04/08 02:43:18;;;;;;;0.00;0.00;;;4.60;99.90;;;;;;5055323;28;20017;-72
2022/04/08 02:45:43;;;;;;;1.67;0.00;;;4.50;99.90;;;;;;5055028;28;20043;-72
2022/04/08 02:48:09;;;;;;;4.10;0.00;;;4.40;99.90;;;;;;5036840;28;20032;-72
2022/04/08 02:50:35;;;;;;;1.20;0.63;;;4.30;99.90;;;;;;5055058;28;20103;-72
2022/04/08 02:53:00;;;;;;;6.93;0.30;;;4.20;99.90;;;;;;5055113;28;20478;-72
2022/04/08 02:55:26;;;;;;;2.95;0.45;;;4.10;99.90;;;;;;5036990;28;20021;-72
2022/04/08 02:57:51;;;;;;;4.00;0.00;;;3.90;99.90;;;;;;5036829;28;20032;-72
2022/04/08 03:00:19;;;;;;;2.97;0.00;;;3.80;99.90;;;;;;5037163;28;20021;-72
2022/04/08 03:02:46;;;;;;;3.00;0.00;;;3.80;99.90;;;;;;5054647;28;20401;-72
2022/04/08 03:05:12;;;;;;;4.70;0.20;;;3.70;99.90;;;;;;5054613;28;20048;-72
2022/04/08 03:07:38;;;;;;;2.08;0.40;;;3.60;99.90;;;;;;5036792;28;20474;-72
2022/04/08 03:10:04;;;;;;;2.50;0.30;;;3.60;99.90;;;;;;5036682;28;20028;-72
2022/04/08 03:12:31;;;;;;;8.48;0.65;;;3.50;99.90;;;;;;5054664;28;20111;-72
2022/04/08 03:14:57;;;;;;;3.83;0.10;;;3.50;99.90;;;;;;5054528;28;20557;-72
2022/04/08 03:17:23;;;;;;;6.53;1.17;;;3.50;99.90;;;;;;5054512;28;20048;-72
2022/04/08 03:19:49;;;;;;;5.10;0.00;;;3.50;99.90;;;;;;5053852;28;20075;-72
2022/04/08 03:22:14;;;;;;;4.68;0.20;;;3.50;99.90;;;;;;5054602;28;20025;-74
2022/04/08 03:24:40;;;;;;;4.35;0.38;;;3.60;99.90;;;;;;5054752;28;20466;-72
2022/04/08 03:27:05;;;;;;;3.80;0.22;;;3.60;99.90;;;;;;5054118;28;20029;-73
2022/04/08 03:29:31;;;;;;;11.18;0.65;;;3.50;99.90;;;;;;5036478;28;20037;-73
2022/04/08 03:31:56;;;;;;;4.35;0.10;;;3.50;99.90;;;;;;5054543;28;20021;-73
2022/04/08 03:34:22;;;;;;;8.82;0.10;;;3.60;99.90;;;;;;5035271;28;20021;-73
2022/04/08 03:36:51;;;;;;;6.57;0.08;;;3.60;99.90;;;;;;5054657;28;20009;-74
2022/04/08 03:39:17;;;;;;;4.78;0.22;;;3.60;99.90;;;;;;5054249;28;20036;-74
2022/04/08 03:41:43;;;;;;;1.55;0.00;;;3.50;99.90;;;;;;5054317;28;20502;-74
2022/04/08 03:44:08;;;;;;;2.13;0.10;;;3.50;99.90;;;;;;5054658;28;20096;-74
2022/04/08 03:46:34;;;;;;;8.90;0.63;;;3.50;99.90;;;;;;5036029;28;20017;-74
2022/04/08 03:48:59;;;;;;;7.63;0.60;;;3.50;99.90;;;;;;5053771;28;20036;-73
2022/04/08 03:51:25;;;;;;;7.05;0.63;;;3.50;99.90;;;;;;5053590;28;20486;-73
2022/04/08 03:53:50;;;;;;;4.18;0.10;;;3.50;99.90;;;;;;5054458;28;20096;-73
2022/04/08 03:56:16;;;;;;;4.38;0.20;;;3.50;99.90;;;;;;5054097;28;20017;-73
2022/04/08 03:58:41;;;;;;;7.15;0.25;;;3.50;99.90;;;;;;5053941;28;20053;-73
2022/04/08 04:01:07;;;;;;;6.75;0.82;;;3.50;99.90;;;;;;5054069;28;20048;-74
2022/04/08 04:03:32;;;;;;;5.15;0.30;;;3.50;99.90;;;;;;5053598;28;20013;-74
2022/04/08 04:05:58;;;;;;;7.10;0.20;;;3.40;99.90;;;;;;5053340;28;20035;-74
2022/04/08 04:08:24;;;;;;;3.30;0.10;;;3.40;99.90;;;;;;5036006;28;20021;-74
2022/04/08 04:10:49;;;;;;;2.08;0.25;;;3.40;99.90;;;;;;5035717;28;20039;-74
2022/04/08 04:13:15;;;;;;;6.32;0.10;;;3.40;99.90;;;;;;5053367;28;20032;-74
2022/04/08 04:15:41;;;;;;;0.73;0.08;;;3.30;99.90;;;;;;5035834;28;20163;-74
2022/04/08 04:18:07;;;;;;;4.47;0.15;;;3.30;99.90;;;;;;5053308;28;20029;-74
2022/04/08 04:20:32;;;;;;;2.22;0.13;;;3.30;99.90;;;;;;5035581;28;20029;-74
2022/04/08 04:22:58;;;;;;;3.70;0.28;;;3.30;99.90;;;;;;5053429;28;20029;-73
2022/04/08 04:25:23;;;;;;;9.45;1.58;;;3.30;99.90;;;;;;5053371;28;20032;-73
2022/04/08 04:27:49;;;;;;;10.38;0.57;;;3.30;99.90;;;;;;5036016;28;20028;-73
2022/04/08 04:30:14;;;;;;;5.35;0.20;;;3.20;99.90;;;;;;5035298;28;20107;-74
2022/04/08 04:32:40;;;;;;;5.32;0.45;;;3.20;99.90;;;;;;5053077;28;20422;-74
2022/04/08 04:35:06;;;;;;;4.68;0.75;;;3.20;99.90;;;;;;5054067;28;20017;-73
2022/04/08 04:37:36;;;;;;;3.30;0.10;;;3.30;99.90;;;;;;5035406;28;20021;-74
2022/04/08 04:40:03;;;;;;;5.85;0.43;;;3.30;99.90;;;;;;5035806;28;20071;-73
2022/04/08 04:42:29;;;;;;;8.02;0.28;;;3.30;99.90;;;;;;5053205;28;20021;-73
2022/04/08 04:44:55;;;;;;;7.20;0.08;;;3.30;99.90;;;;;;5053486;28;20425;-74
2022/04/08 04:47:21;;;;;;;5.15;0.10;;;3.30;99.90;;;;;;5037921;28;20393;-74
2022/04/08 04:49:47;;;;;;;5.10;0.88;;;3.30;99.90;;;;;;5039625;28;20055;-73
2022/04/08 04:52:12;;;;;;;3.25;0.10;;;3.20;99.90;;;;;;5058437;28;20116;-74
2022/04/08 04:54:38;;;;;;;2.08;0.10;;;3.30;99.90;;;;;;5057594;28;20374;-73
2022/04/08 04:57:04;;;;;;;9.75;0.57;;;3.30;99.90;;;;;;5039832;28;20021;-74
2022/04/08 04:59:29;;;;;;;8.30;0.20;;;3.40;99.90;;;;;;5038972;28;20021;-73
2022/04/08 05:01:55;;;;;;;4.15;0.20;;;3.40;99.90;;;;;;5057274;28;20112;-74
2022/04/08 05:04:20;;;;;;;2.63;0.10;;;3.60;99.90;;;;;;5056693;28;20047;-74
2022/04/08 05:06:46;;;;;;;1.92;0.00;;;3.60;99.90;;;;;;5057124;28;20441;-74
2022/04/08 05:09:12;;;;;;;5.68;0.15;;;3.70;99.90;;;;;;5057164;28;20021;-74
2022/04/08 05:11:40;;;;;;;4.53;0.25;;;3.70;99.90;;;;;;5039416;28;20025;-73
2022/04/08 05:14:06;;;;;;;2.28;0.10;;;4.80;99.90;;;;;;5056847;28;20017;-74
2022/04/08 05:16:31;;;;;;;4.88;0.00;;;3.70;99.90;;;;;;5057349;28;20025;-73
2022/04/08 05:18:57;;;;;;;5.20;0.63;;;3.70;99.90;;;;;;5038689;28;20488;-73
2022/04/08 05:21:23;;;;;;;5.60;0.22;;;3.80;99.90;;;;;;5056765;28;20393;-73
2022/04/08 05:23:48;;;;;;;1.90;0.03;;;3.80;99.90;;;;;;5056665;28;20055;-73
2022/04/08 05:26:15;;;;;;;5.28;0.10;;;3.80;99.90;;;;;;5056810;28;20024;-73
2022/04/08 05:28:40;;;;;;;6.28;0.45;;;3.90;99.90;;;;;;5039265;28;20032;-73
2022/04/08 05:31:06;;;;;;;5.60;0.22;;;3.90;99.90;;;;;;5038744;28;20021;-74
2022/04/08 05:33:32;;;;;;;5.18;0.35;;;3.90;99.90;;;;;;5056152;28;20393;-73
2022/04/08 05:35:58;;;;;;;3.60;0.00;;;4.00;99.90;;;;;;5056768;28;20360;-73
2022/04/08 05:38:23;;;;;;;5.55;0.10;;;4.00;99.90;;;;;;5056376;28;20079;-73
2022/04/08 05:40:49;;;;;;;2.50;0.00;;;3.90;99.90;;;;;;5056520;28;20465;-73
2022/04/08 05:43:16;;;;;;;4.57;0.30;;;3.90;99.90;;;;;;5056753;28;20036;-73
2022/04/08 05:45:41;;;;;;;5.30;0.47;;;4.00;99.90;;;;;;5038598;28;20051;-73
2022/04/08 05:48:07;;;;;;;10.77;0.55;;;4.00;99.90;;;;;;5056304;28;20073;-73
2022/04/08 05:50:33;;;;;;;6.30;0.47;;;4.10;99.90;;;;;;5056051;28;20036;-73
2022/04/08 05:53:00;;;;;;;4.68;0.10;;;4.10;99.90;;;;;;5038678;28;20028;-73
2022/04/08 05:55:25;;;;;;;4.47;0.35;;;4.10;99.90;;;;;;5038173;28;20108;-73
2022/04/08 05:57:53;;;;;;;8.57;0.95;;;4.20;99.90;;;;;;5055996;28;20056;-73
2022/04/08 06:00:23;;;;;;;4.55;0.90;;;4.30;99.90;;;;;;5056252;28;20025;-72
2022/04/08 06:02:49;;;;;;;3.38;0.00;;;4.50;99.90;;;;;;5056319;28;20108;-74
2022/04/08 06:05:18;;;;;;;11.07;0.25;;;4.50;99.90;;;;;;5038511;28;20067;-72
2022/04/08 06:07:48;;;;;;;9.95;0.85;;;4.60;99.90;;;;;;5056024;28;20025;-73
2022/04/08 06:10:18;;;;;;;5.53;1.17;;;4.60;99.90;;;;;;5055715;28;20028;-73
2022/04/08 06:12:50;;;;;;;5.65;0.60;;;4.60;99.90;;;;;;5056401;28;20025;-72
2022/04/08 06:15:17;;;;;;;3.78;0.40;;;4.80;99.90;;;;;;5055676;28;20025;-72
2022/04/08 06:17:42;;;;;;;3.55;0.52;;;4.90;99.90;;;;;;5055809;28;20474;-72
2022/04/08 06:20:09;;;;;;;1.60;0.30;;;4.90;99.90;;;;;;5055662;28;20025;-72
2022/04/08 06:22:39;;;;;;;3.05;0.00;;;5.00;99.90;;;;;;5055747;28;20033;-73
2022/04/08 06:25:09;;;;;;;3.42;0.15;;;5.00;99.90;;;;;;5038208;28;20032;-73
2022/04/08 06:27:35;;;;;;;7.07;0.20;;;5.10;99.90;;;;;;5037963;28;20047;-73
2022/04/08 06:30:01;;;;;;;4.63;0.20;;;5.10;99.90;;;;;;5055387;28;20021;-73
2022/04/08 06:32:27;;;;;;;3.53;0.30;;;5.20;99.90;;;;;;5055570;28;20049;-73
2022/04/08 06:34:52;;;;;;;4.80;0.05;;;5.20;99.90;;;;;;5055410;28;20025;-73
2022/04/08 06:37:18;;;;;;;4.57;0.10;;;5.20;99.90;;;;;;5056108;28;20017;-73
2022/04/08 06:39:45;;;;;;;4.38;0.28;;;5.30;99.90;;;;;;5056259;28;20021;-74
2022/04/08 06:42:11;;;;;;;8.07;0.10;;;5.40;99.90;;;;;;5055038;28;20029;-74
2022/04/08 06:44:37;;;;;;;1.58;0.10;;;5.50;99.90;;;;;;5055423;28;20529;-74
2022/04/08 06:47:02;;;;;;;3.92;0.15;;;5.50;99.90;;;;;;5055514;28;20378;-74
2022/04/08 06:49:28;;;;;;;3.17;0.00;;;5.60;99.90;;;;;;5055280;28;20064;-74
2022/04/08 06:51:58;;;;;;;12.25;1.40;;;5.60;99.90;;;;;;5037222;28;20021;-74
2022/04/08 06:54:24;;;;;;;6.72;0.28;;;5.70;99.90;;;;;;5037194;28;20017;-74
2022/04/08 06:56:50;;;;;;;2.42;0.30;;;5.90;99.90;;;;;;5037517;28;20024;-74
2022/04/08 06:59:15;;;;;;;4.55;0.10;;;6.00;99.90;;;;;;5055094;28;20056;-74
2022/04/08 07:01:41;;;;;;;4.03;0.00;;;6.00;99.90;;;;;;5054980;28;20029;-74
2022/04/08 07:04:06;;;;;;;2.63;0.88;;;6.00;99.90;;;;;;5037375;28;20028;-74
2022/04/08 07:06:32;;;;;;;3.15;0.30;;;6.10;99.90;;;;;;5037338;28;20123;-74
2022/04/08 07:08:58;;;;;;;8.18;0.50;;;6.20;99.90;;;;;;5053743;28;20028;-74
2022/04/08 07:11:23;;;;;;;2.65;0.10;;;6.40;99.90;;;;;;5037658;28;20040;-74
2022/04/08 07:13:49;;;;;;;3.53;0.10;;;6.30;99.90;;;;;;5054920;28;20025;-74
2022/04/08 07:16:15;;;;;;;2.92;0.22;;;6.40;99.90;;;;;;5036977;28;20029;-74
2022/04/08 07:21:16;;;;;;;1.45;0.00;;;6.50;99.90;;;;;;5033565;28;20038;-72
2022/04/08 07:23:41;;;;;;;1.50;0.40;;;6.50;99.90;;;;;;5017418;28;20076;-72
2022/04/08 07:26:07;;;;;;;2.72;0.17;;;6.60;99.90;;;;;;5017382;28;20028;-72
2022/04/08 07:28:33;;;;;;;0.57;0.00;;;6.60;99.90;;;;;;5034669;28;20104;-72
2022/04/08 07:30:59;;;;;;;2.85;0.00;;;6.60;99.90;;;;;;5034390;28;20036;-72
2022/04/08 07:33:24;;;;;;;4.70;0.32;;;6.70;99.90;;;;;;5034324;28;20025;-72
2022/04/08 07:35:50;;;;;;;4.88;0.00;;;6.80;99.90;;;;;;5035018;28;20026;-72
2022/04/08 07:38:16;;;;;;;2.97;0.00;;;6.80;99.90;;;;;;5016764;28;20598;-72
2022/04/08 07:40:41;;;;;;;5.20;0.10;;;6.90;99.90;;;;;;5034321;28;20049;-72
2022/04/08 07:43:07;;;;;;;6.20;0.60;;;6.90;99.90;;;;;;5017153;28;20030;-72
2022/04/08 07:45:33;;;;;;;0.82;0.00;;;7.00;99.90;;;;;;5034894;28;20087;-72
2022/04/08 07:47:59;;;;;;;6.57;0.10;;;7.10;99.90;;;;;;5034802;28;20036;-72
2022/04/08 07:50:27;;;;;;;3.72;0.10;;;7.10;99.90;;;;;;5034603;28;20021;-72
2022/04/08 07:52:53;;;;;;;7.75;0.35;;;7.20;99.90;;;;;;5034105;28;20033;-71
2022/04/08 07:55:20;;;;;;;3.17;0.00;;;7.30;99.90;;;;;;5034206;28;20072;-72
2022/04/08 07:57:47;;;;;;;2.63;0.80;;;7.40;99.90;;;;;;5034238;28;20021;-72
2022/04/08 08:00:16;;;;;;;5.07;0.00;;;7.40;99.90;;;;;;5034225;28;20052;-72
2022/04/08 08:02:42;;;;;;;4.57;0.00;;;7.40;99.90;;;;;;5034010;28;20052;-72
2022/04/08 08:05:09;;;;;;;2.25;0.10;;;7.40;99.90;;;;;;5034160;28;20048;-72
2022/04/08 08:08:05;;;;;;;2.30;0.10;;;7.40;99.90;;;;;;5033862;28;20104;-71
2022/04/08 08:10:35;;;;;;;6.43;0.47;;;7.60;99.90;;;;;;5017591;28;20034;-71
2022/04/08 08:13:01;;;;;;;10.30;0.08;;;7.60;99.90;;;;;;5033698;28;20033;-71
2022/04/08 08:15:28;;;;;;;4.63;0.20;;;7.80;99.90;;;;;;5033124;28;20075;-72
2022/04/08 08:17:55;;;;;;;7.35;1.27;;;7.80;99.90;;;;;;5033808;28;20026;-72
2022/04/08 08:20:21;;;;;;;5.97;0.30;;;8.00;99.90;;;;;;5033391;28;20368;-72
2022/04/08 08:22:47;;;;;;;2.63;0.40;;;8.00;99.90;;;;;;5034251;28;20033;-71
2022/04/08 08:25:17;;;;;;;5.93;0.00;;;8.00;99.90;;;;;;5034284;28;20123;-71
2022/04/08 08:27:48;;;;;;;5.50;0.22;;;8.10;99.90;;;;;;5033639;28;20104;-71
2022/04/08 08:30:15;;;;;;;9.93;1.10;;;8.20;99.90;;;;;;5016087;28;20386;-71
2022/04/08 08:32:45;;;;;;;2.33;0.10;;;8.20;99.90;;;;;;5033574;28;20456;-71
2022/04/08 08:35:15;;;;;;;6.55;0.10;;;8.30;99.90;;;;;;5033625;28;20075;-71
2022/04/08 08:37:41;;;;;;;4.80;0.05;;;8.40;99.90;;;;;;5033956;28;20080;-71
2022/04/08 08:40:08;;;;;;;3.40;0.22;;;8.50;99.90;;;;;;5033533;28;20064;-71
2022/04/08 08:42:38;;;;;;;5.38;0.03;;;8.60;99.90;;;;;;5016378;28;20033;-72
2022/04/08 08:45:05;;;;;;;4.93;0.00;;;8.80;99.90;;;;;;5033452;28;20483;-72
2022/04/08 08:47:32;;;;;;;3.28;0.10;;;8.90;99.90;;;;;;5015612;28;20037;-72
2022/04/08 08:49:58;;;;;;;4.50;0.80;;;8.90;99.90;;;;;;5033748;28;20013;-72
2022/04/08 08:52:24;;;;;;;4.47;0.10;;;9.00;99.90;;;;;;5033939;28;20014;-72
2022/04/08 08:54:50;;;;;;;5.53;0.35;;;9.00;99.90;;;;;;5016231;28;20028;-71
2022/04/08 08:57:17;;;;;;;0.57;0.20;;;9.00;99.90;;;;;;5034055;28;20029;-72
2022/04/08 08:59:46;;;;;;;1.35;0.00;;;9.00;99.90;;;;;;5033094;28;20556;-72
2022/04/08 09:02:17;;;;;;;2.25;0.00;;;8.90;99.90;;;;;;5033886;28;20429;-72
2022/04/08 09:04:43;;;;;;;6.50;0.28;;;8.90;99.90;;;;;;5033241;28;20025;-72
2022/04/08 09:07:24;;;;;;;3.50;0.10;;;8.90;99.90;;;;;;5015237;28;20040;-72
2022/04/08 09:09:54;;;;;;;8.60;0.30;;;8.90;99.90;;;;;;5023717;28;20091;-73
2022/04/08 09:12:24;;;;;;;2.67;0.00;;;8.80;99.90;;;;;;5033798;28;20030;-73
2022/04/08 09:14:51;;;;;;;3.42;0.10;;;8.80;99.90;;;;;;5033979;28;20026;-73
2022/04/08 09:17:18;;;;;;;3.83;0.00;;;8.90;99.90;;;;;;5033956;28;20029;-73
2022/04/08 09:19:48;;;;;;;2.90;0.30;;;9.10;99.90;;;;;;5016190;28;20022;-73
2022/04/08 09:22:14;;;;;;;3.00;0.55;;;9.20;99.90;;;;;;5016123;28;20449;-73
2022/04/08 09:24:40;;;;;;;3.40;0.20;;;9.30;99.90;;;;;;5034139;28;20159;-73
2022/04/08 09:27:05;;;;;;;7.43;0.45;;;9.30;99.90;;;;;;5034128;28;20025;-73
2022/04/08 09:29:31;;;;;;;0.90;0.13;;;9.40;99.90;;;;;;5034195;28;20029;-73
2022/04/08 09:31:57;;;;;;;1.95;0.03;;;9.40;99.90;;;;;;5034295;28;20029;-73
2022/04/08 09:34:26;;;;;;;2.08;0.35;;;9.40;99.90;;;;;;5037780;28;20017;-73
2022/04/08 09:36:52;;;;;;;4.82;0.00;;;9.40;99.90;;;;;;5019825;28;20076;-73
2022/04/08 09:39:18;;;;;;;6.55;0.28;;;9.30;99.90;;;;;;5019734;28;20022;-73
2022/04/08 09:41:48;;;;;;;4.05;0.00;;;9.40;99.90;;;;;;5037046;28;20071;-73
2022/04/08 09:44:22;;;;;;;3.95;0.20;;;9.40;99.10;;;;;;5019096;28;20018;-72
2022/04/08 09:46:48;;;;;;;4.00;0.00;;;9.50;99.90;;;;;;5019061;28;20018;-71
2022/04/08 09:49:13;;;;;;;4.07;0.00;;;9.40;99.90;;;;;;5037107;28;20025;-71
2022/04/08 09:51:40;;;;;;;6.50;0.00;;;9.50;99.90;;;;;;5037035;28;20386;-71
2022/04/08 09:54:12;;;;;;;2.90;0.00;;;9.60;99.90;;;;;;5037338;28;20021;-71
2022/04/08 09:56:38;;;;;;;8.77;0.40;;;9.50;99.90;;;;;;5037316;28;20071;-71
2022/04/08 09:59:14;;;;;;;4.65;0.10;;;9.50;99.90;;;;;;5037212;28;20025;-72
2022/04/08 10:01:43;;;;;;;2.60;0.10;;;9.60;99.90;;;;;;5037058;28;20033;-72
2022/04/08 10:04:10;;;;;;;4.95;0.15;;;9.70;99.90;;;;;;5037094;28;20071;-71
2022/04/08 10:06:37;;;;;;;2.17;0.00;;;9.70;99.90;;;;;;5036834;28;20060;-71
2022/04/08 10:09:04;;;;;;;3.75;0.20;;;9.70;99.90;;;;;;5036948;28;20021;-71
2022/04/08 10:11:39;;;;;;;1.55;0.00;;;9.80;99.90;;;;;;5037076;28;20464;-71
2022/04/08 10:14:28;;;;;;;8.27;0.00;;;9.80;99.90;;;;;;5037361;28;20474;-72
2022/04/08 10:16:55;;;;;;;4.70;0.95;;;9.80;99.90;;;;;;5037248;28;20025;-71
2022/04/08 10:19:23;;;;;;;3.78;0.30;;;9.90;99.90;;;;;;5036419;28;20078;-71
2022/04/08 10:21:53;;;;;;;4.80;0.00;;;10.00;99.90;;;;;;5036460;28;20029;-71
2022/04/08 10:24:27;;;;;;;1.30;0.00;;;10.00;99.90;;;;;;5037212;28;20017;-71
2022/04/08 10:27:05;;;;;;;3.95;0.15;;;10.20;99.90;;;;;;5036615;28;20023;-71
2022/04/08 10:29:34;;;;;;;0.55;0.00;;;10.20;99.90;;;;;;5035950;28;20041;-71
2022/04/08 10:32:21;;;;;;;1.02;0.00;;;10.30;99.90;;;;;;5035673;28;20057;-71
2022/04/08 10:34:47;;;;;;;3.47;0.30;;;10.50;99.90;;;;;;5035971;28;20427;-71
2022/04/08 10:37:21;;;;;;;3.83;0.65;;;10.70;99.90;;;;;;5035811;28;20017;-71
2022/04/08 10:40:02;;;;;;;2.40;0.00;;;10.80;99.90;;;;;;5035768;28;20105;-71
2022/04/08 10:42:29;;;;;;;1.63;0.15;;;10.80;97.50;;;;;;5035607;28;20063;-71
2022/04/08 10:44:55;;;;;;;4.78;0.57;;;10.70;95.60;;;;;;5035898;28;20112;-72
2022/04/08 10:47:21;;;;;;;3.47;0.17;;;10.40;96.60;;;;;;5035432;28;20462;-71
2022/04/08 10:50:07;;;;;;;1.02;0.10;;;10.10;94.90;;;;;;5017608;28;20045;-71
2022/04/08 10:52:40;;;;;;;1.83;0.00;;;10.20;99.90;;;;;;5035176;28;20018;-72
2022/04/08 10:55:08;;;;;;;4.45;0.63;;;10.20;99.90;;;;;;5017556;28;20025;-72
2022/04/08 10:57:38;;;;;;;1.70;0.05;;;10.20;99.90;;;;;;5035345;28;20032;-72
2022/04/08 11:00:06;;;;;;;2.15;0.10;;;10.20;99.90;;;;;;5036197;28;20028;-72
2022/04/08 11:02:40;;;;;;;4.20;0.00;;;10.20;99.60;;;;;;5035151;28;20057;-72
2022/04/08 11:05:10;;;;;;;7.25;0.00;;;10.20;99.70;;;;;;5035919;28;20022;-71
2022/04/08 11:07:44;;;;;;;6.75;0.20;;;10.30;99.90;;;;;;5036127;28;20030;-72
2022/04/08 11:10:11;;;;;;;5.65;1.40;;;10.30;99.90;;;;;;5035365;28;20389;-72
2022/04/08 11:12:48;;;;;;;3.40;0.25;;;10.40;99.90;;;;;;5036100;28;20028;-71
2022/04/08 11:15:24;;;;;;;1.17;0.00;;;10.40;97.20;;;;;;5017950;28;20082;-71
2022/04/08 11:17:52;;;;;;;3.13;0.10;;;10.40;96.10;;;;;;5035715;28;20041;-71
2022/04/08 11:20:22;;;;;;;0.28;0.00;;;10.30;96.50;;;;;;5035267;28;20022;-71
2022/04/08 11:22:52;;;;;;;2.20;0.10;;;10.30;96.50;;;;;;5035751;28;20029;-71
2022/04/08 11:25:29;;;;;;;4.93;0.15;;;10.50;98.50;;;;;;5017663;28;20390;-72
2022/04/08 11:27:59;;;;;;;7.97;0.00;;;10.60;95.90;;;;;;5034908;28;20104;-72
2022/04/08 11:30:25;;;;;;;3.80;0.00;;;10.60;96.60;;;;;;5017674;28;20022;-72
2022/04/08 11:32:51;;;;;;;8.20;0.52;;;10.70;95.50;;;;;;5035167;28;20068;-71
2022/04/08 11:35:16;;;;;;;2.35;0.45;;;10.70;97.90;;;;;;5034476;28;20017;-71
2022/04/08 11:37:42;;;;;;;5.00;0.10;;;10.70;95.40;;;;;;5034809;28;20475;-71
2022/04/08 11:40:18;;;;;;;5.38;0.10;;;10.80;96.90;;;;;;5035070;28;20025;-71
2022/04/08 11:42:45;;;;;;;6.88;0.22;;;10.80;96.30;;;;;;5017069;28;20617;-71
2022/04/08 11:45:12;;;;;;;3.60;0.00;;;11.00;98.40;;;;;;5034561;28;20022;-71
2022/04/08 11:47:40;;;;;;;1.88;0.10;;;11.00;93.00;;;;;;5034620;28;20104;-71
2022/04/08 11:50:08;;;;;;;2.85;0.30;;;10.90;92.60;;;;;;5034954;28;20112;-71
2022/04/08 11:52:35;;;;;;;4.18;0.50;;;11.00;92.70;;;;;;5034934;28;20026;-71
2022/04/08 11:55:06;;;;;;;1.55;0.00;;;10.80;86.20;;;;;;5034609;28;20014;-71
2022/04/08 11:57:33;;;;;;;1.13;0.00;;;10.90;88.70;;;;;;5034848;28;20024;-71
2022/04/08 12:00:01;;;;;;;4.03;0.00;;;10.80;91.40;;;;;;5034092;28;20106;-71
2022/04/08 12:02:28;;;;;;;5.57;0.55;;;10.70;91.90;;;;;;5016823;28;20494;-71
2022/04/08 12:04:54;;;;;;;1.23;0.10;;;10.70;95.40;;;;;;5034585;28;20067;-71
2022/04/08 12:07:30;;;;;;;3.42;0.00;;;10.70;93.70;;;;;;5035190;28;20033;-71
2022/04/08 12:09:58;;;;;;;4.45;0.10;;;10.60;89.40;;;;;;5016870;28;20024;-71
2022/04/08 12:12:34;;;;;;;2.97;0.10;;;10.60;91.40;;;;;;5034640;28;20033;-71
2022/04/08 12:15:10;;;;;;;2.88;0.00;;;10.80;92.60;;;;;;5016954;28;20390;-72
2022/04/08 12:17:46;;;;;;;4.78;0.22;;;10.90;91.90;;;;;;5034796;28;20116;-71
2022/04/08 12:20:19;;;;;;;1.95;0.03;;;10.90;94.30;;;;;;5034160;28;20084;-71
2022/04/08 12:22:46;;;;;;;7.70;1.13;;;11.00;92.10;;;;;;5034570;28;20112;-71
2022/04/08 12:25:13;;;;;;;3.60;0.10;;;11.10;92.50;;;;;;5034288;28;20025;-71
2022/04/08 12:27:43;;;;;;;4.05;0.22;;;11.20;92.60;;;;;;5034350;28;20427;-71
2022/04/08 12:30:09;;;;;;;1.38;0.00;;;11.20;92.60;;;;;;5016618;28;20030;-71
2022/04/08 12:32:43;;;;;;;6.53;0.13;;;11.30;92.50;;;;;;5034186;28;20032;-71
2022/04/08 12:35:12;;;;;;;2.80;0.10;;;11.30;94.20;;;;;;5016625;28;20026;-71
2022/04/08 12:37:38;;;;;;;2.90;0.52;;;11.30;91.00;;;;;;5034647;28;20112;-73
2022/04/08 12:40:05;;;;;;;6.47;0.17;;;11.30;89.60;;;;;;5034053;28;20071;-73
2022/04/08 12:42:34;;;;;;;0.30;0.10;;;11.20;91.50;;;;;;5034101;28;20064;-73
2022/04/08 12:45:00;;;;;;;4.20;0.35;;;11.20;91.30;;;;;;5016472;28;20021;-73
2022/04/08 12:47:26;;;;;;;8.38;0.75;;;11.20;92.00;;;;;;5034454;28;20052;-73
2022/04/08 12:49:51;;;;;;;2.15;0.13;;;11.20;93.30;;;;;;5034430;28;20026;-73
2022/04/08 12:52:17;;;;;;;4.10;0.00;;;11.00;92.40;;;;;;5033555;28;20072;-72
2022/04/08 12:54:45;;;;;;;4.90;0.68;;;11.00;92.60;;;;;;5034269;28;20053;-73
2022/04/08 12:57:10;;;;;;;2.58;0.10;;;10.90;93.70;;;;;;5016325;28;20389;-72